Time;durP1;ratioP1;P1;durP2;ratioP2;P2;SDS_P1;SDS_P2;PMS_P1;PMS_P2;Temp;Humidity;BMP_temperature;BMP_pressure;BME280_temperature;BME280_humidity;BME280_pressure;Samples;Min_cycle;Max_cycle;Signal;HPM_P1;HPM_P2
2023/03/24 00:02:08;;;;;;;12.40;6.10;;;;;;;;;;5051454;28;20419;-83
2023/03/24 00:04:34;;;;;;;14.85;6.68;;;;;;;;;;5039046;28;20432;-83
2023/03/24 00:07:02;;;;;;;11.88;6.35;;;;;;;;;;5034303;28;20463;-84
2023/03/24 00:09:33;;;;;;;15.75;6.80;;;;;;;;;;5036619;28;20415;-83
2023/03/24 00:12:02;;;;;;;14.18;6.40;;;;;;;;;;5037864;28;20400;-84
2023/03/24 00:14:29;;;;;;;12.88;6.35;;;;;;;;;;5052944;28;20775;-83
2023/03/24 00:16:58;;;;;;;14.95;6.40;;;;;;;;;;5035571;28;20899;-82
2023/03/24 00:19:24;;;;;;;13.57;6.35;;;;;;;;;;5033693;28;20419;-83
2023/03/24 00:21:54;;;;;;;12.70;6.10;;;;;;;;;;5035216;28;20431;-82
2023/03/24 00:24:21;;;;;;;11.43;6.22;;;;;;;;;;5035590;28;20431;-82
2023/03/24 00:26:50;;;;;;;13.95;6.55;;;;;;;;;;5035646;28;20419;-84
2023/03/24 00:29:17;;;;;;;10.77;6.07;;;;;;;;;;5053474;28;20415;-84
2023/03/24 00:31:44;;;;;;;14.27;6.87;;;;;;;;;;5035462;28;20428;-83
2023/03/24 00:34:12;;;;;;;15.75;7.05;;;;;;;;;;5050372;28;20459;-83
2023/03/24 00:37:03;;;;;;;13.93;6.50;;;;;;;;;;5035869;28;20963;-83
2023/03/24 00:39:29;;;;;;;11.55;6.63;;;;;;;;;;5033839;28;20414;-83
2023/03/24 00:41:57;;;;;;;11.43;5.80;;;;;;;;;;5033483;28;20453;-83
2023/03/24 00:44:29;;;;;;;13.60;6.63;;;;;;;;;;5042392;28;20942;-83
2023/03/24 00:46:55;;;;;;;14.35;6.78;;;;;;;;;;5049407;28;20779;-82
2023/03/24 00:49:41;;;;;;;11.95;6.45;;;;;;;;;;5034494;28;20942;-83
2023/03/24 00:52:10;;;;;;;11.60;6.18;;;;;;;;;;5049215;28;20426;-83
2023/03/24 00:54:38;;;;;;;13.63;6.40;;;;;;;;;;5051733;28;20508;-83
2023/03/24 00:57:07;;;;;;;13.05;6.25;;;;;;;;;;5036349;28;20396;-83
2023/03/24 00:59:41;;;;;;;11.82;6.18;;;;;;;;;;5049353;28;21459;-83
2023/03/24 01:02:10;;;;;;;10.82;6.28;;;;;;;;;;5035245;28;20423;-83
2023/03/24 01:04:38;;;;;;;9.80;5.90;;;;;;;;;;5036426;28;20403;-82
2023/03/24 01:07:06;;;;;;;9.25;5.68;;;;;;;;;;5028017;28;20432;-83
2023/03/24 01:09:35;;;;;;;9.40;5.40;;;;;;;;;;5043728;28;20423;-83
2023/03/24 01:12:02;;;;;;;10.13;5.75;;;;;;;;;;5053684;28;20477;-83
2023/03/24 01:14:29;;;;;;;10.60;6.18;;;;;;;;;;5050761;28;20464;-83
2023/03/24 01:16:55;;;;;;;10.40;6.03;;;;;;;;;;5036405;28;20456;-82
2023/03/24 01:19:24;;;;;;;10.45;6.00;;;;;;;;;;5036718;28;20406;-83
2023/03/24 01:21:53;;;;;;;11.57;6.10;;;;;;;;;;5050784;28;20937;-83
2023/03/24 01:24:19;;;;;;;10.27;6.00;;;;;;;;;;5053303;28;20488;-83
2023/03/24 01:26:45;;;;;;;11.35;5.80;;;;;;;;;;5057794;28;20419;-83
2023/03/24 01:29:11;;;;;;;11.88;5.75;;;;;;;;;;5043217;28;20459;-83
2023/03/24 01:31:40;;;;;;;9.33;5.80;;;;;;;;;;5062296;28;20412;-83
2023/03/24 01:34:06;;;;;;;10.90;6.33;;;;;;;;;;5025222;28;20839;-83
2023/03/24 01:36:32;;;;;;;9.65;5.57;;;;;;;;;;5039385;28;20787;-84
2023/03/24 01:39:00;;;;;;;10.75;5.97;;;;;;;;;;5077024;28;20434;-83
2023/03/24 01:41:33;;;;;;;9.52;5.78;;;;;;;;;;5027992;28;20424;-84
2023/03/24 01:44:00;;;;;;;10.32;6.25;;;;;;;;;;5049460;28;20927;-85
2023/03/24 01:46:28;;;;;;;12.73;6.57;;;;;;;;;;5041573;28;21051;-84
2023/03/24 01:49:05;;;;;;;10.52;5.70;;;;;;;;;;5055020;28;20438;-82
2023/03/24 01:51:34;;;;;;;9.43;5.90;;;;;;;;;;5039838;28;20886;-83
2023/03/24 01:54:19;;;;;;;8.25;5.50;;;;;;;;;;5037843;28;20427;-83
2023/03/24 01:56:48;;;;;;;8.10;5.28;;;;;;;;;;5071672;28;20407;-83
2023/03/24 01:59:17;;;;;;;10.40;5.60;;;;;;;;;;5038557;28;20476;-83
2023/03/24 02:01:44;;;;;;;10.27;5.85;;;;;;;;;;5039314;28;20926;-86
2023/03/24 02:04:10;;;;;;;9.40;5.78;;;;;;;;;;5038186;28;20510;-88
2023/03/24 02:06:39;;;;;;;11.10;5.63;;;;;;;;;;5038499;28;20419;-89
2023/03/24 02:09:06;;;;;;;9.90;5.47;;;;;;;;;;5038216;28;20493;-89
2023/03/24 02:11:33;;;;;;;9.98;5.60;;;;;;;;;;5039584;28;20729;-88
2023/03/24 02:14:00;;;;;;;11.13;5.50;;;;;;;;;;5054178;28;20961;-83
2023/03/24 02:16:29;;;;;;;7.45;5.00;;;;;;;;;;5030020;28;20427;-84
2023/03/24 02:19:06;;;;;;;8.98;5.40;;;;;;;;;;5048417;28;20445;-84
2023/03/24 02:21:35;;;;;;;9.23;5.93;;;;;;;;;;5041639;28;20436;-83
2023/03/24 02:24:23;;;;;;;7.78;5.40;;;;;;;;;;5051435;28;20423;-84
2023/03/24 02:26:56;;;;;;;10.68;5.70;;;;;;;;;;5034323;28;20449;-84
2023/03/24 02:29:31;;;;;;;9.17;5.37;;;;;;;;;;5036669;28;20461;-83
2023/03/24 02:32:03;;;;;;;9.05;5.38;;;;;;;;;;5053665;28;20415;-84
2023/03/24 02:34:48;;;;;;;11.25;5.88;;;;;;;;;;5062778;28;20469;-83
2023/03/24 02:37:20;;;;;;;8.57;5.20;;;;;;;;;;5071453;28;20424;-83
2023/03/24 02:39:57;;;;;;;11.30;5.63;;;;;;;;;;5055333;28;20491;-83
2023/03/24 02:42:29;;;;;;;11.13;5.57;;;;;;;;;;5050427;28;20451;-83
2023/03/24 02:45:07;;;;;;;9.33;5.20;;;;;;;;;;5053227;28;20485;-82
2023/03/24 02:47:54;;;;;;;9.13;5.40;;;;;;;;;;5037117;28;20419;-82
2023/03/24 02:50:23;;;;;;;8.18;5.22;;;;;;;;;;5045193;28;20413;-82
2023/03/24 02:52:59;;;;;;;8.38;5.32;;;;;;;;;;5037281;28;20569;-81
2023/03/24 02:55:33;;;;;;;8.88;5.22;;;;;;;;;;5037758;28;20911;-82
2023/03/24 02:58:12;;;;;;;8.05;5.47;;;;;;;;;;5055114;28;20411;-82
2023/03/24 03:00:45;;;;;;;7.83;5.50;;;;;;;;;;5035907;28;20419;-83
2023/03/24 03:03:21;;;;;;;8.43;5.25;;;;;;;;;;5054363;28;20431;-84
2023/03/24 03:05:50;;;;;;;9.73;5.10;;;;;;;;;;5037765;28;20484;-82
2023/03/24 03:08:19;;;;;;;9.88;5.50;;;;;;;;;;5037935;28;20543;-87
2023/03/24 03:10:48;;;;;;;7.57;5.25;;;;;;;;;;5028480;28;20498;-82
2023/03/24 03:13:16;;;;;;;7.05;4.80;;;;;;;;;;5050263;28;20409;-81
2023/03/24 03:15:45;;;;;;;7.80;4.97;;;;;;;;;;5034499;28;20402;-82
2023/03/24 03:18:14;;;;;;;7.80;5.30;;;;;;;;;;5034449;28;20406;-82
2023/03/24 03:20:49;;;;;;;7.90;4.63;;;;;;;;;;5042965;28;20429;-82
2023/03/24 03:23:16;;;;;;;7.45;5.10;;;;;;;;;;5069847;28;20463;-82
2023/03/24 03:25:49;;;;;;;7.35;4.20;;;;;;;;;;5036346;28;20412;-82
2023/03/24 03:28:19;;;;;;;5.70;3.63;;;;;;;;;;5031208;28;20852;-80
2023/03/24 03:30:48;;;;;;;5.55;3.50;;;;;;;;;;5035638;28;20763;-80
2023/03/24 03:33:24;;;;;;;6.05;3.33;;;;;;;;;;5033654;28;20443;-80
2023/03/24 03:36:05;;;;;;;6.25;3.20;;;;;;;;;;5036367;28;20408;-81
2023/03/24 03:38:40;;;;;;;7.00;3.90;;;;;;;;;;5048718;28;20596;-82
2023/03/24 03:41:06;;;;;;;5.35;3.50;;;;;;;;;;5036251;28;20431;-81
2023/03/24 03:43:32;;;;;;;7.88;3.47;;;;;;;;;;5051231;28;20450;-81
2023/03/24 03:45:59;;;;;;;7.60;4.10;;;;;;;;;;5051765;28;20411;-81
2023/03/24 03:48:26;;;;;;;9.40;4.20;;;;;;;;;;5033852;28;20423;-82
2023/03/24 03:50:53;;;;;;;7.30;3.42;;;;;;;;;;5019649;28;20410;-82
2023/03/24 03:53:22;;;;;;;6.50;3.20;;;;;;;;;;5037813;28;20794;-87
2023/03/24 03:55:48;;;;;;;8.17;2.90;;;;;;;;;;5037848;28;20415;-84
2023/03/24 03:58:14;;;;;;;6.60;2.70;;;;;;;;;;5037617;28;20798;-88
2023/03/24 04:00:43;;;;;;;8.15;2.70;;;;;;;;;;5046223;28;20498;-88
2023/03/24 04:03:21;;;;;;;9.23;2.40;;;;;;;;;;5052687;28;20435;-88
2023/03/24 04:05:53;;;;;;;6.93;2.50;;;;;;;;;;5054687;28;20490;-88
2023/03/24 04:08:28;;;;;;;6.32;2.28;;;;;;;;;;5050620;28;20905;-88
2023/03/24 04:10:57;;;;;;;10.50;2.42;;;;;;;;;;5036871;28;20400;-88
2023/03/24 04:13:35;;;;;;;6.18;2.17;;;;;;;;;;5053455;28;20502;-88
2023/03/24 04:16:09;;;;;;;8.43;2.40;;;;;;;;;;5036526;28;20430;-88
2023/03/24 04:18:35;;;;;;;7.50;2.47;;;;;;;;;;5053881;28;20461;-87
2023/03/24 04:21:22;;;;;;;10.20;2.60;;;;;;;;;;5036518;28;20465;-87
2023/03/24 04:24:04;;;;;;;9.80;2.70;;;;;;;;;;5017606;28;20421;-88
2023/03/24 04:26:47;;;;;;;8.10;2.42;;;;;;;;;;5050993;28;20405;-87
2023/03/24 04:29:21;;;;;;;9.30;2.40;;;;;;;;;;5046925;28;20425;-88
2023/03/24 04:31:52;;;;;;;9.70;2.75;;;;;;;;;;5049936;28;20412;-86
2023/03/24 04:34:45;;;;;;;10.48;2.85;;;;;;;;;;5037033;28;20489;-83
2023/03/24 04:37:11;;;;;;;7.60;2.30;;;;;;;;;;5032591;28;20442;-87
2023/03/24 04:39:39;;;;;;;10.70;2.60;;;;;;;;;;5037116;28;20399;-87
2023/03/24 04:42:11;;;;;;;8.45;2.42;;;;;;;;;;5052042;28;20411;-88
2023/03/24 04:44:40;;;;;;;10.75;2.70;;;;;;;;;;5057768;28;20443;-87
2023/03/24 04:47:08;;;;;;;9.90;2.80;;;;;;;;;;5041266;28;20510;-83
2023/03/24 04:49:40;;;;;;;12.65;3.00;;;;;;;;;;5023995;28;20424;-81
2023/03/24 04:52:07;;;;;;;8.87;2.50;;;;;;;;;;5054599;28;20814;-81
2023/03/24 04:54:33;;;;;;;9.02;2.40;;;;;;;;;;5039648;28;20438;-87
2023/03/24 04:57:00;;;;;;;11.25;2.63;;;;;;;;;;5040045;28;20640;-88
2023/03/24 04:59:29;;;;;;;11.27;2.58;;;;;;;;;;5040493;28;20423;-86
2023/03/24 05:01:55;;;;;;;8.67;2.50;;;;;;;;;;5039916;28;20444;-87
2023/03/24 05:04:23;;;;;;;12.75;2.85;;;;;;;;;;5021247;28;20431;-88
2023/03/24 05:06:49;;;;;;;12.95;3.00;;;;;;;;;;5042080;28;20413;-88
2023/03/24 05:09:16;;;;;;;12.98;3.50;;;;;;;;;;5044343;28;20769;-82
2023/03/24 05:11:43;;;;;;;12.73;3.30;;;;;;;;;;5056131;28;20420;-81
2023/03/24 05:14:09;;;;;;;13.02;3.85;;;;;;;;;;5039693;28;20404;-81
2023/03/24 05:16:35;;;;;;;13.63;3.80;;;;;;;;;;5055744;28;20404;-81
2023/03/24 05:19:02;;;;;;;15.13;3.90;;;;;;;;;;5037902;28;20423;-82
2023/03/24 05:21:28;;;;;;;17.10;3.92;;;;;;;;;;5053633;28;20438;-82
2023/03/24 05:23:54;;;;;;;15.55;4.13;;;;;;;;;;5054966;28;20420;-81
2023/03/24 05:26:23;;;;;;;13.25;3.60;;;;;;;;;;5039672;28;20945;-82
2023/03/24 05:28:49;;;;;;;14.80;3.47;;;;;;;;;;5056324;28;20415;-82
2023/03/24 05:31:15;;;;;;;12.48;3.88;;;;;;;;;;5051918;28;20442;-81
2023/03/24 05:33:41;;;;;;;12.45;3.55;;;;;;;;;;5021617;28;20424;-81
2023/03/24 05:36:07;;;;;;;11.75;3.50;;;;;;;;;;5071763;28;20429;-81
2023/03/24 05:38:33;;;;;;;15.00;3.75;;;;;;;;;;5022266;28;20424;-81
2023/03/24 05:41:00;;;;;;;13.02;3.42;;;;;;;;;;5053467;28;20903;-81
2023/03/24 05:43:26;;;;;;;15.70;3.42;;;;;;;;;;5054143;28;20432;-82
2023/03/24 05:45:53;;;;;;;15.17;3.30;;;;;;;;;;5054248;28;20449;-81
2023/03/24 05:48:19;;;;;;;11.32;3.00;;;;;;;;;;5038585;28;20404;-81
2023/03/24 05:50:45;;;;;;;14.93;3.22;;;;;;;;;;5035248;28;20423;-82
2023/03/24 05:53:11;;;;;;;10.63;2.80;;;;;;;;;;5045220;28;20418;-82
2023/03/24 05:55:39;;;;;;;16.85;3.80;;;;;;;;;;5038170;28;20521;-83
2023/03/24 05:58:05;;;;;;;15.13;3.38;;;;;;;;;;5039416;28;20774;-82
2023/03/24 06:00:32;;;;;;;14.02;3.50;;;;;;;;;;5034157;28;20432;-82
2023/03/24 06:02:59;;;;;;;14.25;3.03;;;;;;;;;;5040587;28;20422;-82
2023/03/24 06:05:25;;;;;;;10.65;3.05;;;;;;;;;;5037454;28;20418;-82
2023/03/24 06:07:57;;;;;;;9.32;3.22;;;;;;;;;;5053279;28;20419;-83
2023/03/24 06:10:25;;;;;;;13.18;3.30;;;;;;;;;;5039619;28;20420;-82
2023/03/24 06:12:51;;;;;;;16.67;3.50;;;;;;;;;;5037383;28;20473;-83
2023/03/24 06:15:18;;;;;;;13.75;4.10;;;;;;;;;;5039586;28;20407;-83
2023/03/24 06:17:45;;;;;;;12.50;3.95;;;;;;;;;;5038388;28;20428;-83
2023/03/24 06:20:17;;;;;;;11.25;3.45;;;;;;;;;;5073812;28;20461;-82
2023/03/24 06:22:44;;;;;;;15.43;3.40;;;;;;;;;;5056793;28;20431;-83
2023/03/24 06:25:12;;;;;;;13.13;3.63;;;;;;;;;;5057034;28;20404;-82
2023/03/24 06:27:44;;;;;;;13.85;3.47;;;;;;;;;;5039340;28;20836;-82
2023/03/24 06:30:11;;;;;;;18.42;3.75;;;;;;;;;;5039177;28;20723;-88
2023/03/24 06:32:37;;;;;;;13.38;3.38;;;;;;;;;;5034034;28;20925;-89
2023/03/24 06:35:06;;;;;;;14.15;3.60;;;;;;;;;;5056716;28;20418;-81
2023/03/24 06:37:32;;;;;;;13.70;3.97;;;;;;;;;;5019948;28;20401;-81
2023/03/24 06:39:59;;;;;;;12.02;3.53;;;;;;;;;;5036492;28;20398;-81
2023/03/24 06:42:26;;;;;;;12.43;3.42;;;;;;;;;;5051775;28;20424;-81
2023/03/24 06:44:52;;;;;;;16.02;3.33;;;;;;;;;;5031456;28;20432;-87
2023/03/24 06:47:18;;;;;;;12.63;3.25;;;;;;;;;;5036989;28;20415;-82
2023/03/24 06:49:45;;;;;;;15.05;3.65;;;;;;;;;;5062523;28;20416;-81
2023/03/24 06:52:11;;;;;;;13.73;3.20;;;;;;;;;;5063731;28;20412;-81
2023/03/24 06:54:37;;;;;;;14.10;3.40;;;;;;;;;;5046739;28;20427;-81
2023/03/24 06:57:03;;;;;;;15.60;3.70;;;;;;;;;;5055936;28;20435;-82
2023/03/24 06:59:29;;;;;;;14.90;3.70;;;;;;;;;;5045591;28;20450;-83
2023/03/24 07:02:00;;;;;;;13.77;3.30;;;;;;;;;;5064102;28;20403;-83
2023/03/24 07:04:26;;;;;;;19.45;3.50;;;;;;;;;;5054812;28;20419;-88
2023/03/24 07:06:52;;;;;;;16.55;3.65;;;;;;;;;;5054974;28;20406;-87
2023/03/24 07:09:19;;;;;;;17.10;3.90;;;;;;;;;;5064886;28;20465;-86
2023/03/24 07:11:45;;;;;;;13.77;3.70;;;;;;;;;;5045242;28;20430;-92
2023/03/24 07:14:11;;;;;;;18.15;4.03;;;;;;;;;;5043382;28;20424;-89
2023/03/24 07:16:37;;;;;;;17.33;4.05;;;;;;;;;;5048441;28;20917;-87
2023/03/24 07:19:04;;;;;;;19.00;4.50;;;;;;;;;;5039594;28;20429;-90
2023/03/24 07:21:30;;;;;;;19.02;3.83;;;;;;;;;;5058374;28;20403;-86
2023/03/24 07:23:56;;;;;;;23.52;4.03;;;;;;;;;;5056248;28;20423;-89
2023/03/24 07:26:22;;;;;;;18.95;5.15;;;;;;;;;;5051899;28;20417;-88
2023/03/24 07:28:49;;;;;;;19.30;4.22;;;;;;;;;;5057950;28;20564;-88
2023/03/24 07:31:15;;;;;;;21.77;4.50;;;;;;;;;;5039224;28;20427;-85
2023/03/24 07:33:41;;;;;;;14.70;3.90;;;;;;;;;;5054697;28;20419;-88
2023/03/24 07:36:09;;;;;;;20.15;4.05;;;;;;;;;;5034640;28;20417;-88
2023/03/24 07:38:36;;;;;;;20.45;4.50;;;;;;;;;;5052078;28;20421;-88
2023/03/24 07:41:02;;;;;;;17.77;4.22;;;;;;;;;;5037692;28;20424;-88
2023/03/24 07:43:28;;;;;;;22.98;4.63;;;;;;;;;;5036502;28;20935;-89
2023/03/24 07:45:54;;;;;;;15.68;4.25;;;;;;;;;;5036284;28;20415;-89
2023/03/24 07:48:20;;;;;;;19.50;4.30;;;;;;;;;;5050815;28;20780;-88
2023/03/24 07:50:46;;;;;;;20.90;4.15;;;;;;;;;;5052148;28;21010;-88
2023/03/24 07:53:17;;;;;;;24.25;4.20;;;;;;;;;;5049625;28;20449;-88
2023/03/24 07:55:43;;;;;;;20.67;4.20;;;;;;;;;;5043591;28;20474;-88
2023/03/24 07:58:09;;;;;;;20.57;4.70;;;;;;;;;;5017392;28;20501;-85
2023/03/24 08:00:36;;;;;;;21.08;4.53;;;;;;;;;;5046112;28;20447;-88
2023/03/24 08:03:03;;;;;;;20.95;4.57;;;;;;;;;;5068209;28;20451;-88
2023/03/24 08:05:29;;;;;;;22.42;5.03;;;;;;;;;;5035567;28;20419;-87
2023/03/24 08:07:57;;;;;;;22.17;4.60;;;;;;;;;;5030713;28;20951;-87
2023/03/24 08:10:25;;;;;;;22.67;4.53;;;;;;;;;;5040544;28;20563;-88
2023/03/24 08:12:52;;;;;;;19.88;4.68;;;;;;;;;;5035263;28;20405;-87
2023/03/24 08:15:18;;;;;;;20.42;4.65;;;;;;;;;;5028268;28;20432;-89
2023/03/24 08:17:45;;;;;;;22.13;4.50;;;;;;;;;;5038035;28;20425;-87
2023/03/24 08:20:14;;;;;;;18.77;4.15;;;;;;;;;;5057325;28;20414;-87
2023/03/24 08:22:41;;;;;;;23.33;4.40;;;;;;;;;;5034289;28;20421;-87
2023/03/24 08:25:09;;;;;;;20.13;4.20;;;;;;;;;;5055139;28;20426;-87
2023/03/24 08:27:36;;;;;;;21.42;4.95;;;;;;;;;;5040974;28;20914;-87
2023/03/24 08:30:12;;;;;;;17.90;4.25;;;;;;;;;;5037743;28;20432;-88
2023/03/24 08:32:45;;;;;;;26.73;5.03;;;;;;;;;;5054149;28;20403;-89
2023/03/24 08:35:15;;;;;;;16.60;4.35;;;;;;;;;;5057488;28;20426;-88
2023/03/24 08:37:44;;;;;;;22.40;4.57;;;;;;;;;;5034685;28;20576;-88
2023/03/24 08:40:17;;;;;;;22.50;4.38;;;;;;;;;;5041256;28;20762;-88
2023/03/24 08:42:44;;;;;;;22.15;5.07;;;;;;;;;;5057058;28;20415;-89
2023/03/24 08:45:11;;;;;;;20.83;4.75;;;;;;;;;;5055346;28;20457;-88
2023/03/24 08:47:39;;;;;;;19.75;4.50;;;;;;;;;;5053949;28;20424;-88
2023/03/24 08:50:06;;;;;;;25.85;4.82;;;;;;;;;;5043650;28;20806;-88
2023/03/24 08:52:33;;;;;;;21.38;4.80;;;;;;;;;;5036377;28;20415;-88
2023/03/24 08:54:59;;;;;;;17.00;4.22;;;;;;;;;;5023365;28;20412;-88
2023/03/24 08:57:26;;;;;;;18.45;4.30;;;;;;;;;;5050480;28;20413;-89
2023/03/24 08:59:52;;;;;;;20.27;4.00;;;;;;;;;;5065997;28;20409;-89
2023/03/24 09:02:18;;;;;;;19.50;4.33;;;;;;;;;;5037094;28;20469;-88
2023/03/24 09:04:44;;;;;;;18.80;4.43;;;;;;;;;;5049651;28;20471;-88
2023/03/24 09:07:11;;;;;;;21.00;3.72;;;;;;;;;;5050893;28;20915;-88
2023/03/24 09:09:38;;;;;;;14.93;3.63;;;;;;;;;;5041129;28;20408;-88
2023/03/24 09:12:05;;;;;;;15.25;4.22;;;;;;;;;;5036560;28;20496;-89
2023/03/24 09:14:31;;;;;;;15.13;3.70;;;;;;;;;;5020281;28;20824;-87
2023/03/24 09:16:57;;;;;;;19.08;4.30;;;;;;;;;;5009881;28;20852;-88
2023/03/24 09:19:23;;;;;;;17.35;3.92;;;;;;;;;;5009858;28;20481;-87
2023/03/24 09:21:49;;;;;;;15.63;4.00;;;;;;;;;;5001811;28;20534;-88
2023/03/24 09:24:15;;;;;;;21.85;4.78;;;;;;;;;;5031237;28;20503;-89
2023/03/24 09:26:42;;;;;;;17.85;3.50;;;;;;;;;;5018190;28;20926;-88
2023/03/24 09:29:08;;;;;;;15.93;3.75;;;;;;;;;;5028484;28;20411;-84
2023/03/24 09:31:34;;;;;;;18.50;4.20;;;;;;;;;;5030219;28;20417;-86
2023/03/24 09:34:00;;;;;;;20.05;4.63;;;;;;;;;;5035520;28;20405;-83
2023/03/24 09:36:26;;;;;;;20.70;4.03;;;;;;;;;;5005537;28;20445;-84
2023/03/24 09:39:43;;;;;;;20.35;3.88;;;12.70;99.90;;;;;;5018139;28;20496;-83
2023/03/24 09:42:32;;;;;;;17.77;4.57;;;;;;;;;;5009948;28;20471;-85
2023/03/24 09:45:07;;;;;;;16.90;4.00;;;;;;;;;;5040776;28;20978;-85
2023/03/24 09:47:37;;;;;;;19.65;4.40;;;;;;;;;;5059830;28;20418;-88
2023/03/24 09:50:07;;;;;;;18.63;4.50;;;;;;;;;;5053248;28;20430;-85
2023/03/24 09:52:34;;;;;;;14.98;3.70;;;;;;;;;;5025010;28;20413;-87
2023/03/24 09:55:01;;;;;;;17.00;3.90;;;;;;;;;;5052541;28;20410;-87
2023/03/24 09:57:38;;;;;;;20.27;4.50;;;;;;;;;;5037469;28;20410;-88
2023/03/24 10:00:17;;;;;;;15.25;4.10;;;;;;;;;;5037110;28;20401;-87
2023/03/24 10:02:43;;;;;;;14.57;3.70;;;;;;;;;;5048091;28;20421;-86
2023/03/24 10:05:15;;;;;;;19.37;4.70;;;;;;;;;;5066525;28;20478;-85
2023/03/24 10:07:54;;;;;;;19.85;3.78;;;;;;;;;;5055221;28;20418;-84
2023/03/24 10:10:43;;;;;;;17.33;3.60;;;;;;;;;;5034191;28;20402;-85
2023/03/24 10:13:18;;;;;;;21.13;3.70;;;;;;;;;;5050749;28;20415;-85
2023/03/24 10:15:51;;;;;;;16.05;3.90;;;;;;;;;;5037330;28;20499;-85
2023/03/24 10:18:29;;;;;;;13.75;3.30;;;;;;;;;;5037042;28;20432;-86
2023/03/24 10:21:18;;;;;;;15.23;3.83;;;;;;;;;;5050329;28;20427;-85
2023/03/24 10:23:53;;;;;;;13.90;3.38;;;;;;;;;;5046213;28;20432;-85
2023/03/24 10:26:19;;;;;;;15.23;3.33;;;;;;;;;;5050875;28;20413;-85
2023/03/24 10:28:53;;;;;;;13.95;3.50;;;;;;;;;;5036271;28;20550;-86
2023/03/24 10:31:23;;;;;;;18.52;3.58;;;;;;;;;;5051062;28;20437;-85
2023/03/24 10:33:51;;;;;;;19.73;3.65;;;;;;;;;;5044910;28;20413;-86
2023/03/24 10:36:17;;;;;;;12.88;3.22;;;;;;;;;;5037441;28;20431;-84
2023/03/24 10:38:44;;;;;;;13.82;3.25;;;;;;;;;;5052167;28;20415;-84
2023/03/24 10:41:15;;;;;;;15.55;3.75;;;;;;;;;;5025781;28;20973;-84
2023/03/24 10:43:43;;;;;;;13.27;3.28;;;;;;;;;;5046540;28;20420;-85
2023/03/24 10:46:11;;;;;;;15.40;3.78;;;;;;;;;;5030897;28;20431;-84
2023/03/24 10:48:40;;;;;;;14.60;3.90;;;;;;;;;;5045440;28;21351;-83
2023/03/24 10:51:07;;;;;;;15.82;3.88;;;;;;;;;;5035439;28;20449;-86
2023/03/24 10:53:33;;;;;;;16.25;3.83;;;;;;;;;;5029635;28;20812;-83
2023/03/24 10:55:59;;;;;;;16.17;3.55;;;;;;;;;;5036473;28;20746;-84
2023/03/24 10:58:35;;;;;;;14.18;3.15;;;;;;;;;;5033431;28;20423;-84
2023/03/24 11:01:01;;;;;;;15.32;3.35;;;;;;;;;;5032324;28;20825;-84
2023/03/24 11:03:32;;;;;;;12.85;3.35;;;;;;;;;;5053288;28;20420;-84
2023/03/24 11:06:00;;;;;;;17.75;3.47;;;;;;;;;;5047737;28;20425;-84
2023/03/24 11:08:31;;;;;;;18.33;3.67;;;;;;;;;;5048889;28;20469;-84
2023/03/24 11:10:57;;;;;;;20.67;4.05;;;;;;;;;;5032304;28;20420;-84
2023/03/24 11:13:25;;;;;;;14.00;3.17;;;;;;;;;;5038122;28;20506;-84
2023/03/24 11:15:56;;;;;;;14.57;3.10;;;;;;;;;;5035976;28;20416;-83
2023/03/24 11:18:22;;;;;;;15.52;3.47;;;;;;;;;;5049250;28;20980;-82
2023/03/24 11:21:05;;;;;;;14.55;3.35;;;;;;;;;;5020338;28;20422;-81
2023/03/24 11:23:33;;;;;;;12.73;3.75;;;;;;;;;;5043830;28;20425;-82
2023/03/24 11:26:08;;;;;;;12.48;3.35;;;;;;;;;;5038243;28;20404;-81
2023/03/24 11:28:36;;;;;;;14.63;3.25;;;;;;;;;;5055972;28;20422;-82
2023/03/24 11:31:06;;;;;;;16.27;3.58;;;;;;;;;;5038462;28;20423;-82
2023/03/24 11:33:33;;;;;;;15.13;3.83;;;;;;;;;;5026264;28;20753;-81
2023/03/24 11:36:26;;;;;;;14.82;3.20;;;;;;;;;;5045741;28;20652;-83
2023/03/24 11:39:10;;;;;;;17.43;3.60;;;;;;;;;;5048807;28;20409;-82
2023/03/24 11:41:37;;;;;;;15.73;3.45;;;;;;;;;;5049645;28;20907;-82
2023/03/24 11:44:18;;;;;;;13.20;3.10;;;;;;;;;;5051133;28;20429;-82
2023/03/24 11:46:47;;;;;;;11.48;2.70;;;;;;;;;;5036814;28;20494;-82
2023/03/24 11:49:16;;;;;;;11.02;2.55;;;;;;;;;;5048800;28;20775;-82
2023/03/24 11:51:43;;;;;;;12.90;2.97;;;;;;;;;;5044972;28;20421;-83
2023/03/24 11:54:12;;;;;;;12.77;2.90;;;;;;;;;;5073906;28;20407;-82
2023/03/24 11:56:38;;;;;;;12.95;3.10;;;;;;;;;;5038854;28;20437;-82
2023/03/24 11:59:07;;;;;;;12.52;2.78;;;;;;;;;;5054104;28;20419;-82
2023/03/24 12:01:36;;;;;;;11.02;2.85;;;;;;;;;;5030507;28;20510;-82
2023/03/24 12:04:12;;;;;;;13.80;2.92;;;;;;;;;;5045845;28;20508;-82
2023/03/24 12:06:44;;;;;;;15.23;2.63;;;;;;;;;;5051413;28;20420;-82
2023/03/24 12:09:31;;;;;;;14.15;3.28;;;;;;;;;;5033575;28;20492;-81
2023/03/24 12:12:03;;;;;;;12.00;2.58;;;;;;;;;;5066916;28;20794;-82
2023/03/24 12:14:47;;;;;;;15.02;3.10;;;;;;;;;;5054237;28;20914;-82
2023/03/24 12:17:14;;;;;;;12.43;3.08;;;;;;;;;;5040036;28;20409;-82
2023/03/24 12:19:40;;;;;;;13.77;3.35;;;;;;;;;;5036378;28;20495;-82
2023/03/24 12:22:29;;;;;;;12.95;3.03;;;;;;;;;;5052677;28;20424;-82
2023/03/24 12:25:05;;;;;;;15.07;3.65;;;;;;;;;;5035931;28;20448;-81
2023/03/24 12:27:44;;;;;;;17.38;3.47;;;;;;;;;;5050212;28;20442;-81
2023/03/24 12:30:26;;;;;;;13.45;3.40;;;;;;;;;;5051296;28;20459;-82
2023/03/24 12:33:18;;;;;;;12.70;2.95;;;;;;;;;;5051330;28;20514;-82
2023/03/24 12:35:56;;;;;;;11.10;2.83;;;;;;;;;;5004616;28;20415;-81
2023/03/24 12:38:33;;;;;;;13.90;3.28;;;;;;;;;;5051240;28;20419;-81
2023/03/24 12:41:09;;;;;;;14.73;3.70;;;;;;;;;;5057550;28;20825;-81
2023/03/24 12:43:41;;;;;;;12.85;3.13;;;;;;;;;;5046215;28;20506;-81
2023/03/24 12:46:26;;;;;;;14.30;3.63;;;;;;;;;;5065610;28;20816;-81
2023/03/24 12:49:01;;;;;;;15.70;3.55;;;;;;;;;;5059161;28;20435;-81
2023/03/24 12:51:41;;;;;;;12.77;3.53;;;;;;;;;;5047434;28;20900;-81
2023/03/24 12:54:13;;;;;;;11.68;3.10;;;;;;;;;;5032677;28;20498;-80
2023/03/24 12:56:52;;;;;;;12.45;3.40;;;;;;;;;;5050506;28;20408;-80
2023/03/24 12:59:26;;;;;;;12.38;3.10;;;;;;;;;;5046752;28;20417;-81
2023/03/24 13:01:55;;;;;;;12.35;3.28;;;;;;;;;;5046707;28;20807;-81
2023/03/24 13:04:32;;;;;;;13.05;2.97;;;;;;;;;;5033253;28;20424;-80
2023/03/24 13:06:58;;;;;;;13.43;3.20;;;;;;;;;;5036345;28;20461;-80
2023/03/24 13:09:40;;;;;;;10.80;3.00;;;;;;;;;;5053438;28;20906;-81
2023/03/24 13:12:24;;;;;;;12.30;2.83;;;15.00;99.90;;;;;;5049445;28;20420;-81
2023/03/24 13:14:51;;;;;;;11.45;2.90;;;;;;;;;;5034329;28;20488;-79
2023/03/24 13:17:30;;;;;;;13.65;3.13;;;;;;;;;;5050595;28;20419;-79
2023/03/24 13:19:56;;;;;;;11.80;3.20;;;;;;;;;;5030861;28;20748;-80
2023/03/24 13:22:23;;;;;;;10.40;2.72;;;;;;;;;;5066152;28;20514;-80
2023/03/24 13:24:49;;;;;;;10.38;2.88;;;;;;;;;;5047028;28;20532;-79
2023/03/24 13:27:19;;;;;;;10.88;3.38;;;;;;;;;;5030574;28;20913;-80
2023/03/24 13:29:45;;;;;;;9.85;2.50;;;;;;;;;;5050017;28;20453;-80
2023/03/24 13:32:24;;;;;;;10.02;2.83;;;;;;;;;;5043763;28;20420;-80
2023/03/24 13:35:05;;;;;;;15.07;3.03;;;;;;;;;;5053451;28;20844;-80
2023/03/24 13:37:36;;;;;;;13.37;2.90;;;;;;;;;;5054099;28;20423;-80
2023/03/24 13:40:06;;;;;;;11.17;3.13;;;;;;;;;;5056024;28;20926;-80
2023/03/24 13:42:35;;;;;;;13.02;3.03;;;;;;;;;;5038300;28;20469;-80
2023/03/24 13:45:02;;;;;;;13.07;3.30;;;;;;;;;;5036846;28;20507;-79
2023/03/24 13:47:47;;;;;;;15.70;3.45;;;;;;;;;;5051846;28;20518;-80
2023/03/24 13:50:13;;;;;;;16.85;3.50;;;;;;;;;;5042405;28;20420;-80
2023/03/24 13:52:46;;;;;;;14.68;2.92;;;;;;;;;;5031630;28;20431;-80
2023/03/24 13:55:14;;;;;;;13.50;3.25;;;;;;;;;;5033588;28;20421;-79
2023/03/24 13:57:41;;;;;;;12.18;2.72;;;;;;;;;;5034527;28;20812;-79
2023/03/24 14:00:10;;;;;;;11.77;3.27;;;;;;;;;;5018581;28;21064;-80
2023/03/24 14:03:03;;;;;;;15.38;3.25;;;;;;;;;;5033534;28;20816;-79
2023/03/24 14:05:39;;;;;;;14.20;2.63;;;14.50;99.90;;;;;;4987009;28;20425;-79
2023/03/24 14:08:05;;;;;;;8.38;2.65;;;;;;;;;;5035080;28;20419;-77
2023/03/24 14:10:42;;;;;;;13.38;2.78;;;;;;;;;;5034038;28;20417;-77
2023/03/24 14:13:11;;;;;;;11.60;3.00;;;;;;;;;;5014537;28;20820;-78
2023/03/24 14:15:44;;;;;;;12.48;2.60;;;;;;;;;;5031254;28;20428;-77
2023/03/24 14:18:15;;;;;;;10.25;2.50;;;;;;;;;;5032870;28;20433;-76
2023/03/24 14:20:57;;;;;;;12.13;2.45;;;14.30;99.90;;;;;;5035701;28;20543;-76
2023/03/24 14:23:23;;;;;;;10.18;2.33;;;;;;;;;;5033514;28;20425;-76
2023/03/24 14:25:53;;;;;;;12.75;2.97;;;;;;;;;;5016282;28;20825;-76
2023/03/24 14:28:21;;;;;;;9.35;2.28;;;;;;;;;;5050736;28;20432;-76
2023/03/24 14:30:57;;;;;;;9.65;2.45;;;;;;;;;;5033034;28;20430;-77
2023/03/24 14:33:24;;;;;;;12.98;2.50;;;;;;;;;;5013553;28;20422;-77
2023/03/24 14:35:57;;;;;;;11.32;2.30;;;14.40;99.90;;;;;;5031982;28;20437;-75
2023/03/24 14:38:26;;;;;;;9.13;2.40;;;;;;;;;;5017167;28;20521;-75
2023/03/24 14:40:57;;;;;;;10.02;2.33;;;14.30;99.90;;;;;;5035384;28;20440;-76
2023/03/24 14:43:26;;;;;;;9.68;2.50;;;14.60;99.90;;;;;;5049192;28;20471;-77
2023/03/24 14:46:24;;;;;;;11.25;2.35;;;;;;;;;;5007318;28;20495;-77
2023/03/24 14:48:50;;;;;;;9.93;2.53;;;;;;;;;;5012600;28;20524;-77
2023/03/24 14:51:16;;;;;;;10.10;2.33;;;;;;;;;;5017104;28;20423;-75